createdAt,value
2019-03-15T00:00:12.085Z,0.00
2019-03-15T00:01:12.067Z,0.00
2019-03-15T00:02:12.039Z,0.00
2019-03-15T00:03:12.075Z,0.00
2019-03-15T00:04:12.013Z,0.00
2019-03-15T00:05:12.034Z,0.00
2019-03-15T00:06:11.999Z,0.00
2019-03-15T00:07:11.982Z,0.00
2019-03-15T00:08:11.982Z,0.00
2019-03-15T00:09:11.983Z,0.00
2019-03-15T00:10:11.976Z,0.00
2019-03-15T00:11:11.937Z,0.00
2019-03-15T00:12:11.969Z,0.00
2019-03-15T00:13:12.425Z,0.00
2019-03-15T00:14:11.916Z,0.00
2019-03-15T00:15:11.898Z,0.00
2019-03-15T00:16:11.892Z,0.00
2019-03-15T00:17:11.921Z,0.00
2019-03-15T00:18:11.861Z,0.00
2019-03-15T00:19:12.684Z,0.00
2019-03-15T00:20:11.892Z,0.00
2019-03-15T00:21:11.858Z,0.00
2019-03-15T00:22:11.844Z,0.00
2019-03-15T00:23:11.844Z,0.00
2019-03-15T00:24:11.802Z,0.00
2019-03-15T00:25:11.788Z,0.00
2019-03-15T00:26:11.810Z,0.00
2019-03-15T00:27:11.764Z,0.00
2019-03-15T00:28:11.765Z,0.00
2019-03-15T00:29:11.801Z,0.00
2019-03-15T00:30:11.731Z,0.00
2019-03-15T00:31:11.718Z,0.00
2019-03-15T00:32:11.779Z,0.00
2019-03-15T00:33:11.712Z,0.00
2019-03-15T00:34:11.691Z,0.00
2019-03-15T00:35:11.838Z,0.00
2019-03-15T00:36:11.661Z,0.00
2019-03-15T00:37:11.650Z,0.00
2019-03-15T00:38:11.679Z,0.00
2019-03-15T00:39:11.635Z,0.00
2019-03-15T00:40:11.667Z,0.00
2019-03-15T00:41:11.633Z,0.00
2019-03-15T00:42:11.598Z,0.00
2019-03-15T00:43:11.706Z,0.00
2019-03-15T00:44:11.571Z,0.00
2019-03-15T00:45:11.583Z,0.00
2019-03-15T00:46:11.593Z,0.00
2019-03-15T00:47:11.549Z,0.00
2019-03-15T00:48:11.569Z,0.00
2019-03-15T00:49:11.525Z,0.00
2019-03-15T00:50:11.506Z,0.00
2019-03-15T00:51:11.514Z,0.00
2019-03-15T00:52:11.531Z,0.00
2019-03-15T00:53:11.484Z,0.00
2019-03-15T00:54:11.493Z,0.00
2019-03-15T00:55:11.464Z,0.00
2019-03-15T00:56:11.761Z,0.00
2019-03-15T00:57:11.490Z,0.00
2019-03-15T00:58:11.419Z,0.00
2019-03-15T00:59:11.418Z,0.00
2019-03-15T01:00:11.424Z,0.00
2019-03-15T01:01:11.409Z,0.00
2019-03-15T01:02:11.491Z,0.00
2019-03-15T01:03:11.369Z,0.00
2019-03-15T01:04:11.399Z,0.00
2019-03-15T01:05:11.371Z,0.00
2019-03-15T01:06:11.347Z,0.00
2019-03-15T01:07:11.373Z,0.00
2019-03-15T01:08:11.542Z,0.00
2019-03-15T01:09:11.322Z,0.00
2019-03-15T01:10:11.295Z,0.00
2019-03-15T01:11:11.316Z,0.00
2019-03-15T01:12:11.270Z,0.00
2019-03-15T01:13:11.275Z,0.00
2019-03-15T01:14:11.263Z,0.00
2019-03-15T01:15:11.237Z,0.00
2019-03-15T01:16:11.335Z,0.00
2019-03-15T01:17:11.211Z,0.00
2019-03-15T01:18:11.208Z,0.00
2019-03-15T01:19:11.205Z,0.00
2019-03-15T01:20:11.189Z,0.00
2019-03-15T01:21:11.211Z,0.00
2019-03-15T01:22:11.159Z,0.00
2019-03-15T01:23:11.143Z,0.00
2019-03-15T01:24:11.160Z,0.00
2019-03-15T01:25:11.217Z,0.00
2019-03-15T01:26:11.139Z,0.00
2019-03-15T01:27:11.098Z,0.00
2019-03-15T01:28:11.092Z,0.00
2019-03-15T01:29:11.178Z,0.00
2019-03-15T01:30:11.097Z,0.00
2019-03-15T01:31:11.060Z,0.00
2019-03-15T01:32:11.147Z,0.00
2019-03-15T01:33:11.071Z,0.00
2019-03-15T01:34:11.028Z,0.00
2019-03-15T01:35:11.016Z,0.00
2019-03-15T01:36:11.116Z,0.00
2019-03-15T01:37:11.060Z,0.00
2019-03-15T01:38:10.983Z,0.00
2019-03-15T01:39:10.977Z,0.00
2019-03-15T01:40:11.026Z,0.00
2019-03-15T01:41:10.949Z,0.00
2019-03-15T01:42:10.976Z,0.00
2019-03-15T01:43:10.929Z,0.00
2019-03-15T01:44:10.929Z,0.00
2019-03-15T01:45:10.960Z,0.00
2019-03-15T01:46:10.898Z,0.00
2019-03-15T01:47:10.929Z,0.00
2019-03-15T01:48:10.913Z,0.00
2019-03-15T01:49:10.872Z,0.00
2019-03-15T01:50:10.892Z,0.00
2019-03-15T01:51:10.905Z,0.00
2019-03-15T01:52:10.837Z,0.00
2019-03-15T01:53:10.812Z,0.00
2019-03-15T01:54:10.841Z,0.00
2019-03-15T01:55:10.798Z,0.00
2019-03-15T01:56:10.924Z,0.00
2019-03-15T01:57:10.781Z,0.00
2019-03-15T01:58:10.771Z,0.00
2019-03-15T01:59:10.826Z,0.00
2019-03-15T02:00:10.749Z,0.00
2019-03-15T02:01:10.792Z,0.00
2019-03-15T02:02:10.717Z,0.00
2019-03-15T02:03:10.706Z,0.00
2019-03-15T02:04:10.734Z,0.00
2019-03-15T02:05:10.765Z,0.00
2019-03-15T02:06:10.709Z,0.00
2019-03-15T02:07:10.725Z,0.00
2019-03-15T02:08:10.670Z,0.00
2019-03-15T02:09:10.636Z,0.00
2019-03-15T02:10:11.083Z,0.00
2019-03-15T02:11:10.624Z,0.00
2019-03-15T02:12:10.610Z,0.00
2019-03-15T02:13:10.621Z,0.00
2019-03-15T02:14:10.677Z,0.00
2019-03-15T02:15:10.610Z,0.00
2019-03-15T02:16:10.602Z,0.00
2019-03-15T02:17:10.616Z,0.00
2019-03-15T02:18:10.545Z,0.00
2019-03-15T02:19:10.629Z,0.00
2019-03-15T02:20:10.556Z,0.00
2019-03-15T02:21:10.514Z,0.00
2019-03-15T02:22:10.526Z,0.00
2019-03-15T02:23:10.487Z,0.00
2019-03-15T02:24:10.485Z,0.00
2019-03-15T02:25:10.497Z,0.00
2019-03-15T02:26:10.506Z,0.00
2019-03-15T02:27:10.466Z,0.00
2019-03-15T02:28:10.479Z,0.00
2019-03-15T02:29:10.421Z,0.00
2019-03-15T02:30:10.435Z,0.00
2019-03-15T02:31:10.504Z,0.00
2019-03-15T02:32:10.409Z,0.00
2019-03-15T02:33:10.399Z,0.00
2019-03-15T02:34:10.405Z,0.00
2019-03-15T02:35:10.367Z,0.00
2019-03-15T02:36:10.389Z,0.00
2019-03-15T02:37:10.378Z,0.00
2019-03-15T02:38:10.342Z,0.00
2019-03-15T02:39:10.380Z,0.00
2019-03-15T02:40:10.377Z,0.00
2019-03-15T02:41:10.296Z,0.00
2019-03-15T02:42:10.422Z,0.00
2019-03-15T02:43:10.295Z,0.00
2019-03-15T02:44:10.306Z,0.00
2019-03-15T02:45:10.287Z,0.00
2019-03-15T02:46:10.270Z,0.00
2019-03-15T02:47:10.219Z,0.00
2019-03-15T02:48:10.226Z,0.00
2019-03-15T02:49:10.282Z,0.00
2019-03-15T02:50:10.210Z,0.00
2019-03-15T02:51:10.190Z,0.00
2019-03-15T02:52:10.174Z,0.00
2019-03-15T02:53:10.187Z,0.00
2019-03-15T02:54:10.150Z,0.00
2019-03-15T02:55:10.154Z,0.00
2019-03-15T02:56:10.155Z,0.00
2019-03-15T02:57:10.122Z,0.00
2019-03-15T02:58:10.144Z,0.00
2019-03-15T02:59:10.112Z,0.00
2019-03-15T03:00:10.093Z,0.00
2019-03-15T03:01:10.129Z,0.00
2019-03-15T03:02:10.115Z,0.00
2019-03-15T03:03:10.074Z,0.00
2019-03-15T03:04:10.054Z,0.00
2019-03-15T03:05:10.061Z,0.00
2019-03-15T03:06:10.035Z,0.00
2019-03-15T03:07:10.030Z,0.00
2019-03-15T03:08:10.017Z,0.00
2019-03-15T03:09:10.038Z,0.00
2019-03-15T03:10:10.018Z,0.00
2019-03-15T03:11:10.001Z,0.00
2019-03-15T03:12:09.955Z,0.00
2019-03-15T03:13:10.749Z,0.00
2019-03-15T03:14:09.963Z,0.00
2019-03-15T03:15:09.923Z,0.00
2019-03-15T03:16:09.948Z,0.00
2019-03-15T03:17:09.897Z,0.00
2019-03-15T03:18:09.986Z,0.00
2019-03-15T03:19:09.891Z,0.00
2019-03-15T03:20:09.869Z,0.00
2019-03-15T03:21:09.850Z,0.00
2019-03-15T03:22:09.840Z,0.00
2019-03-15T03:23:09.880Z,0.00
2019-03-15T03:24:09.839Z,0.00
2019-03-15T03:25:09.876Z,0.00
2019-03-15T03:26:09.795Z,0.00
2019-03-15T03:27:09.827Z,0.00
2019-03-15T03:28:09.790Z,0.00
2019-03-15T03:29:09.784Z,0.00
2019-03-15T03:30:09.857Z,0.00
2019-03-15T03:31:09.744Z,0.00
2019-03-15T03:32:09.754Z,0.00
2019-03-15T03:33:12.338Z,0.00
2019-03-15T03:34:11.713Z,0.00
2019-03-15T03:35:10.704Z,0.00
2019-03-15T03:36:09.764Z,0.00
2019-03-15T03:37:09.738Z,0.00
2019-03-15T03:38:09.701Z,0.00
2019-03-15T03:39:09.661Z,0.00
2019-03-15T03:40:09.765Z,0.00
2019-03-15T03:41:09.634Z,0.00
2019-03-15T03:42:09.626Z,0.00
2019-03-15T03:43:09.642Z,0.00
2019-03-15T03:44:09.602Z,0.00
2019-03-15T03:45:09.622Z,0.00
2019-03-15T03:46:09.595Z,0.00
2019-03-15T03:47:09.669Z,0.00
2019-03-15T03:48:09.585Z,0.00
2019-03-15T03:49:09.563Z,0.00
2019-03-15T03:50:09.605Z,0.00
2019-03-15T03:51:09.536Z,0.00
2019-03-15T03:52:09.545Z,0.00
2019-03-15T03:53:09.605Z,0.00
2019-03-15T03:54:09.493Z,0.00
2019-03-15T03:55:09.485Z,0.00
2019-03-15T03:56:09.518Z,0.00
2019-03-15T03:57:10.490Z,0.00
2019-03-15T03:58:09.470Z,0.00
2019-03-15T03:59:09.447Z,0.00
2019-03-15T04:00:09.477Z,0.00
2019-03-15T04:01:09.437Z,0.00
2019-03-15T04:02:09.504Z,0.00
2019-03-15T04:03:09.397Z,0.00
2019-03-15T04:04:09.442Z,0.00
2019-03-15T04:05:09.373Z,0.00
2019-03-15T04:06:09.463Z,0.00
2019-03-15T04:07:09.365Z,0.00
2019-03-15T04:08:09.347Z,0.00
2019-03-15T04:09:09.381Z,0.00
2019-03-15T04:10:09.333Z,0.00
2019-03-15T04:11:09.308Z,0.00
2019-03-15T04:12:09.317Z,0.00
2019-03-15T04:13:09.282Z,0.00
2019-03-15T04:14:09.335Z,0.00
2019-03-15T04:15:09.301Z,0.00
2019-03-15T04:16:09.266Z,0.00
2019-03-15T04:17:09.244Z,0.00
2019-03-15T04:18:09.226Z,0.00
2019-03-15T04:19:09.217Z,0.00
2019-03-15T04:20:09.224Z,0.00
2019-03-15T04:21:09.320Z,0.00
2019-03-15T04:22:09.186Z,0.00
2019-03-15T04:23:09.178Z,0.00
2019-03-15T04:24:09.196Z,0.00
2019-03-15T04:25:09.162Z,0.00
2019-03-15T04:26:09.162Z,0.00
2019-03-15T04:27:09.142Z,0.00
2019-03-15T04:28:09.160Z,0.00
2019-03-15T04:29:09.108Z,0.00
2019-03-15T04:30:09.217Z,0.00
2019-03-15T04:31:09.110Z,0.00
2019-03-15T04:32:09.088Z,0.00
2019-03-15T04:33:09.102Z,0.00
2019-03-15T04:34:09.053Z,0.00
2019-03-15T04:35:09.042Z,0.00
2019-03-15T04:36:09.071Z,0.00
2019-03-15T04:37:09.486Z,0.00
2019-03-15T04:38:09.012Z,0.00
2019-03-15T04:39:09.003Z,0.00
2019-03-15T04:40:09.129Z,0.00
2019-03-15T04:41:08.974Z,0.00
2019-03-15T04:42:08.985Z,0.00
2019-03-15T04:43:08.964Z,0.00
2019-03-15T04:44:08.951Z,0.00
2019-03-15T04:45:08.933Z,0.00
2019-03-15T04:46:08.925Z,0.00
2019-03-15T04:47:08.984Z,0.00
2019-03-15T04:48:08.909Z,0.00
2019-03-15T04:49:08.963Z,0.00
2019-03-15T04:50:08.876Z,0.00
2019-03-15T04:51:08.865Z,0.00
2019-03-15T04:52:08.913Z,0.00
2019-03-15T04:53:08.847Z,0.00
2019-03-15T04:54:08.832Z,0.00
2019-03-15T04:55:09.001Z,0.00
2019-03-15T04:56:08.809Z,0.00
2019-03-15T04:57:08.801Z,0.00
2019-03-15T04:58:08.847Z,0.00
2019-03-15T04:59:08.784Z,0.00
2019-03-15T05:00:08.778Z,0.00
2019-03-15T05:01:08.794Z,0.00
2019-03-15T05:02:08.787Z,0.00
2019-03-15T05:03:08.754Z,0.00
2019-03-15T05:04:08.729Z,0.00
2019-03-15T05:05:08.723Z,0.00
2019-03-15T05:06:08.775Z,0.00
2019-03-15T05:07:08.689Z,0.00
2019-03-15T05:08:08.757Z,0.00
2019-03-15T05:09:08.672Z,0.00
2019-03-15T05:10:08.708Z,0.00
2019-03-15T05:11:08.666Z,0.00
2019-03-15T05:12:08.645Z,0.00
2019-03-15T05:13:08.618Z,0.00
2019-03-15T05:14:08.617Z,0.00
2019-03-15T05:15:08.637Z,0.00
2019-03-15T05:16:08.588Z,0.00
2019-03-15T05:17:08.601Z,0.00
2019-03-15T05:18:08.564Z,0.00
2019-03-15T05:19:08.555Z,0.00
2019-03-15T05:20:08.565Z,0.00
2019-03-15T05:21:08.531Z,0.00
2019-03-15T05:22:08.522Z,0.00
2019-03-15T05:23:08.526Z,0.00
2019-03-15T05:24:08.506Z,0.00
2019-03-15T05:25:08.500Z,0.00
2019-03-15T05:26:08.514Z,0.00
2019-03-15T05:27:08.470Z,0.00
2019-03-15T05:28:08.477Z,0.00
2019-03-15T05:29:08.466Z,0.00
2019-03-15T05:30:08.445Z,0.00
2019-03-15T05:31:08.423Z,0.00
2019-03-15T05:32:08.413Z,0.00
2019-03-15T05:33:08.451Z,0.00
2019-03-15T05:34:08.389Z,0.00
2019-03-15T05:35:08.379Z,0.00
2019-03-15T05:36:08.382Z,4.00
2019-03-15T05:37:08.380Z,0.00
2019-03-15T05:38:08.432Z,4.00
2019-03-15T05:39:08.366Z,0.00
2019-03-15T05:40:08.326Z,4.00
2019-03-15T05:41:08.312Z,4.00
2019-03-15T05:42:08.303Z,0.00
2019-03-15T05:43:08.341Z,4.00
2019-03-15T05:44:08.283Z,8.00
2019-03-15T05:45:08.315Z,4.00
2019-03-15T05:46:08.261Z,4.00
2019-03-15T05:47:08.246Z,8.00
2019-03-15T05:48:08.237Z,8.00
2019-03-15T05:49:08.238Z,8.00
2019-03-15T05:50:08.215Z,8.00
2019-03-15T05:51:08.226Z,8.00
2019-03-15T05:52:08.192Z,12.00
2019-03-15T05:53:08.181Z,12.00
2019-03-15T05:54:08.186Z,12.00
2019-03-15T05:55:08.174Z,16.00
2019-03-15T05:56:08.150Z,12.00
2019-03-15T05:57:08.192Z,16.00
2019-03-15T05:58:08.125Z,16.00
2019-03-15T05:59:08.113Z,20.00
2019-03-15T06:00:08.129Z,20.00
2019-03-15T06:01:08.096Z,24.00
2019-03-15T06:02:08.083Z,32.00
2019-03-15T06:03:08.117Z,24.00
2019-03-15T06:04:08.058Z,32.00
2019-03-15T06:05:08.943Z,28.00
2019-03-15T06:06:08.048Z,36.00
2019-03-15T06:07:08.025Z,36.00
2019-03-15T06:08:08.017Z,36.00
2019-03-15T06:09:08.052Z,48.00
2019-03-15T06:10:07.994Z,36.00
2019-03-15T06:11:07.993Z,52.00
2019-03-15T06:12:07.986Z,40.00
2019-03-15T06:13:07.963Z,52.00
2019-03-15T06:14:07.948Z,44.00
2019-03-15T06:15:08.021Z,52.00
2019-03-15T06:16:07.934Z,52.00
2019-03-15T06:17:07.916Z,52.00
2019-03-15T06:18:07.920Z,68.00
2019-03-15T06:19:07.894Z,52.00
2019-03-15T06:20:07.919Z,72.00
2019-03-15T06:21:07.897Z,56.00
2019-03-15T06:22:07.868Z,72.00
2019-03-15T06:23:07.854Z,64.00
2019-03-15T06:24:07.845Z,72.00
2019-03-15T06:25:07.832Z,72.00
2019-03-15T06:26:07.831Z,72.00
2019-03-15T06:27:07.854Z,84.00
2019-03-15T06:28:07.806Z,68.00
2019-03-15T06:29:07.790Z,96.00
2019-03-15T06:30:07.774Z,84.00
2019-03-15T06:31:07.778Z,108.00
2019-03-15T06:32:07.764Z,104.00
2019-03-15T06:33:07.765Z,112.00
2019-03-15T06:34:07.729Z,124.00
2019-03-15T06:35:07.732Z,112.00
2019-03-15T06:36:07.714Z,144.00
2019-03-15T06:37:07.698Z,112.00
2019-03-15T06:38:07.687Z,148.00
2019-03-15T06:39:08.426Z,116.00
2019-03-15T06:40:07.663Z,144.00
2019-03-15T06:41:07.673Z,116.00
2019-03-15T06:42:07.647Z,136.00
2019-03-15T06:43:07.632Z,120.00
2019-03-15T06:44:07.619Z,132.00
2019-03-15T06:45:07.628Z,124.00
2019-03-15T06:46:07.610Z,120.00
2019-03-15T06:47:07.590Z,120.00
2019-03-15T06:48:07.580Z,120.00
2019-03-15T06:49:07.565Z,128.00
2019-03-15T06:50:07.568Z,120.00
2019-03-15T06:51:09.270Z,160.00
2019-03-15T06:52:07.547Z,112.00
2019-03-15T06:53:07.520Z,168.00
2019-03-15T06:54:11.751Z,132.00
2019-03-15T06:55:07.518Z,160.00
2019-03-15T06:56:07.491Z,140.00
2019-03-15T06:57:07.518Z,148.00
2019-03-15T06:58:07.464Z,148.00
2019-03-15T06:59:07.457Z,136.00
2019-03-15T07:00:07.444Z,164.00
2019-03-15T07:01:07.451Z,124.00
2019-03-15T07:02:07.420Z,164.00
2019-03-15T07:03:07.445Z,132.00
2019-03-15T07:04:07.424Z,168.00
2019-03-15T07:05:07.392Z,152.00
2019-03-15T07:06:07.378Z,168.00
2019-03-15T07:07:07.369Z,172.00
2019-03-15T07:08:07.360Z,168.00
2019-03-15T07:09:07.564Z,188.00
2019-03-15T07:10:07.344Z,168.00
2019-03-15T07:11:07.344Z,208.00
2019-03-15T07:12:09.745Z,160.00
2019-03-15T07:13:07.304Z,208.00
2019-03-15T07:14:07.294Z,160.00
2019-03-15T07:15:07.311Z,192.00
2019-03-15T07:16:07.279Z,164.00
2019-03-15T07:17:07.273Z,176.00
2019-03-15T07:18:07.995Z,168.00
2019-03-15T07:19:07.238Z,168.00
2019-03-15T07:20:07.230Z,188.00
2019-03-15T07:21:07.252Z,172.00
2019-03-15T07:22:07.213Z,220.00
2019-03-15T07:23:07.193Z,176.00
2019-03-15T07:24:07.180Z,224.00
2019-03-15T07:25:07.171Z,188.00
2019-03-15T07:26:07.161Z,220.00
2019-03-15T07:27:12.927Z,204.00
2019-03-15T07:28:08.138Z,208.00
2019-03-15T07:29:07.126Z,208.00
2019-03-15T07:30:07.118Z,192.00
2019-03-15T07:31:07.108Z,236.00
2019-03-15T07:32:07.117Z,192.00
2019-03-15T07:33:07.081Z,244.00
2019-03-15T07:34:07.094Z,204.00
2019-03-15T07:35:07.460Z,236.00
2019-03-15T07:36:07.050Z,200.00
2019-03-15T07:37:07.038Z,220.00
2019-03-15T07:38:07.060Z,220.00
2019-03-15T07:39:07.013Z,204.00
2019-03-15T07:40:07.008Z,232.00
2019-03-15T07:41:06.999Z,196.00
2019-03-15T07:42:07.142Z,252.00
2019-03-15T07:43:07.017Z,216.00
2019-03-15T07:44:06.973Z,232.00
2019-03-15T07:45:06.955Z,216.00
2019-03-15T07:46:06.942Z,208.00
2019-03-15T07:47:06.927Z,220.00
2019-03-15T07:48:06.918Z,188.00
2019-03-15T07:49:06.966Z,240.00
2019-03-15T07:50:06.892Z,188.00
2019-03-15T07:51:06.882Z,240.00
2019-03-15T07:52:06.871Z,228.00
2019-03-15T07:53:06.875Z,236.00
2019-03-15T07:54:06.851Z,232.00
2019-03-15T07:55:06.904Z,228.00
2019-03-15T07:56:06.827Z,268.00
2019-03-15T07:57:06.822Z,204.00
2019-03-15T07:58:07.486Z,264.00
2019-03-15T07:59:06.796Z,248.00
2019-03-15T08:00:06.787Z,268.00
2019-03-15T08:01:06.849Z,256.00
2019-03-15T08:02:06.760Z,276.00
2019-03-15T08:03:06.752Z,284.00
2019-03-15T08:04:16.784Z,248.00
2019-03-15T08:05:07.726Z,332.00
2019-03-15T08:06:06.729Z,308.00
2019-03-15T08:07:06.719Z,316.00
2019-03-15T08:08:06.747Z,320.00
2019-03-15T08:09:06.687Z,312.00
2019-03-15T08:10:06.706Z,308.00
2019-03-15T08:11:06.664Z,280.00
2019-03-15T08:12:06.666Z,328.00
2019-03-15T08:13:06.639Z,272.00
2019-03-15T08:14:06.674Z,320.00
2019-03-15T08:15:06.625Z,276.00
2019-03-15T08:16:06.634Z,288.00
2019-03-15T08:17:06.597Z,312.00
2019-03-15T08:18:06.611Z,288.00
2019-03-15T08:19:06.584Z,320.00
2019-03-15T08:20:06.563Z,280.00
2019-03-15T08:21:06.614Z,300.00
2019-03-15T08:22:06.543Z,284.00
2019-03-15T08:23:08.633Z,284.00
2019-03-15T08:24:06.534Z,284.00
2019-03-15T08:25:06.507Z,232.00
2019-03-15T08:26:06.519Z,268.00
2019-03-15T08:27:06.488Z,208.00
2019-03-15T08:28:06.536Z,208.00
2019-03-15T08:29:09.473Z,172.00
2019-03-15T08:30:06.452Z,220.00
2019-03-15T08:31:06.443Z,216.00
2019-03-15T08:32:06.447Z,196.00
2019-03-15T08:33:10.458Z,232.00
2019-03-15T08:34:06.431Z,208.00
2019-03-15T08:35:06.400Z,272.00
2019-03-15T08:36:06.388Z,220.00
2019-03-15T08:37:06.374Z,224.00
2019-03-15T08:38:06.380Z,224.00
2019-03-15T08:39:06.355Z,212.00
2019-03-15T08:40:06.342Z,228.00
2019-03-15T08:41:06.346Z,196.00
2019-03-15T08:42:06.319Z,292.00
2019-03-15T08:43:06.310Z,268.00
2019-03-15T08:44:06.316Z,264.00
2019-03-15T08:45:06.289Z,260.00
2019-03-15T08:46:06.277Z,272.00
2019-03-15T08:47:06.267Z,296.00
2019-03-15T08:48:06.293Z,208.00
2019-03-15T08:49:06.246Z,248.00
2019-03-15T08:50:06.253Z,248.00
2019-03-15T08:51:06.223Z,280.00
2019-03-15T08:52:06.210Z,236.00
2019-03-15T08:53:06.202Z,224.00
2019-03-15T08:54:06.215Z,224.00
2019-03-15T08:55:06.192Z,196.00
2019-03-15T08:56:06.170Z,280.00
2019-03-15T08:57:06.156Z,260.00
2019-03-15T08:58:13.910Z,280.00
2019-03-15T08:59:07.132Z,240.00
2019-03-15T09:00:06.147Z,256.00
2019-03-15T09:01:06.127Z,296.00
2019-03-15T09:02:06.102Z,272.00
2019-03-15T09:03:06.090Z,336.00
2019-03-15T09:04:06.079Z,248.00
2019-03-15T09:05:06.069Z,308.00
2019-03-15T09:06:06.105Z,260.00
2019-03-15T09:07:06.058Z,276.00
2019-03-15T09:08:06.066Z,268.00
2019-03-15T09:09:06.024Z,264.00
2019-03-15T09:10:06.012Z,256.00
2019-03-15T09:11:06.002Z,272.00
2019-03-15T09:12:06.035Z,332.00
2019-03-15T09:13:06.001Z,260.00
2019-03-15T09:14:05.986Z,268.00
2019-03-15T09:15:05.958Z,200.00
2019-03-15T09:16:05.949Z,220.00
2019-03-15T09:17:05.935Z,280.00
2019-03-15T09:18:05.972Z,320.00
2019-03-15T09:19:05.917Z,388.00
2019-03-15T09:20:05.919Z,556.00
2019-03-15T09:21:05.893Z,484.00
2019-03-15T09:22:05.885Z,396.00
2019-03-15T09:23:05.870Z,324.00
2019-03-15T09:24:05.885Z,300.00
2019-03-15T09:25:18.552Z,260.00
2019-03-15T09:26:10.196Z,256.00
2019-03-15T09:27:05.827Z,304.00
2019-03-15T09:28:05.818Z,364.00
2019-03-15T09:29:05.818Z,364.00
2019-03-15T09:30:05.835Z,428.00
2019-03-15T09:31:07.522Z,520.00
2019-03-15T09:32:09.149Z,764.00
2019-03-15T09:33:05.773Z,576.00
2019-03-15T09:34:05.755Z,404.00
2019-03-15T09:35:05.743Z,356.00
2019-03-15T09:36:05.795Z,404.00
2019-03-15T09:37:05.719Z,484.00
2019-03-15T09:38:05.726Z,404.00
2019-03-15T09:39:05.695Z,448.00
2019-03-15T09:40:05.683Z,412.00
2019-03-15T09:41:05.672Z,488.00
2019-03-15T09:42:05.706Z,484.00
2019-03-15T09:43:05.674Z,576.00
2019-03-15T09:44:05.639Z,468.00
2019-03-15T09:45:05.628Z,444.00
2019-03-15T09:46:05.642Z,368.00
2019-03-15T09:47:05.608Z,328.00
2019-03-15T09:48:05.594Z,308.00
2019-03-15T09:49:05.624Z,288.00
2019-03-15T09:50:05.577Z,332.00
2019-03-15T09:51:05.565Z,252.00
2019-03-15T09:52:05.564Z,300.00
2019-03-15T09:53:06.107Z,228.00
2019-03-15T09:54:05.528Z,292.00
2019-03-15T09:55:05.553Z,288.00
2019-03-15T09:56:05.507Z,384.00
2019-03-15T09:57:05.500Z,324.00
2019-03-15T09:58:05.498Z,392.00
2019-03-15T09:59:05.475Z,336.00
2019-03-15T10:00:05.463Z,368.00
2019-03-15T10:01:05.755Z,336.00
2019-03-15T10:02:07.833Z,368.00
2019-03-15T10:03:05.433Z,356.00
2019-03-15T10:04:05.453Z,360.00
2019-03-15T10:05:10.679Z,364.00
2019-03-15T10:06:14.828Z,356.00
2019-03-15T10:07:06.406Z,356.00
2019-03-15T10:08:05.415Z,308.00
2019-03-15T10:09:05.364Z,272.00
2019-03-15T10:10:13.540Z,308.00
2019-03-15T10:11:06.342Z,320.00
2019-03-15T10:12:05.331Z,356.00
2019-03-15T10:13:06.462Z,364.00
2019-03-15T10:14:05.345Z,316.00
2019-03-15T10:15:07.769Z,284.00
2019-03-15T10:16:05.300Z,256.00
2019-03-15T10:17:05.275Z,284.00
2019-03-15T10:18:05.274Z,288.00
2019-03-15T10:19:05.252Z,332.00
2019-03-15T10:20:05.261Z,304.00
2019-03-15T10:21:05.240Z,352.00
2019-03-15T10:22:05.238Z,260.00
2019-03-15T10:23:06.450Z,308.00
2019-03-15T10:24:05.194Z,320.00
2019-03-15T10:25:05.190Z,380.00
2019-03-15T10:26:05.187Z,368.00
2019-03-15T10:27:05.166Z,392.00
2019-03-15T10:28:05.167Z,416.00
2019-03-15T10:29:14.709Z,560.00
2019-03-15T10:30:06.132Z,520.00
2019-03-15T10:31:05.122Z,480.00
2019-03-15T10:32:05.145Z,532.00
2019-03-15T10:33:05.111Z,484.00
2019-03-15T10:34:05.889Z,416.00
2019-03-15T10:35:05.228Z,316.00
2019-03-15T10:36:05.071Z,396.00
2019-03-15T10:37:06.280Z,328.00
2019-03-15T10:38:05.115Z,524.00
2019-03-15T10:39:05.029Z,576.00
2019-03-15T10:40:05.022Z,644.00
2019-03-15T10:41:05.009Z,412.00
2019-03-15T10:42:04.999Z,428.00
2019-03-15T10:43:04.995Z,292.00
2019-03-15T10:44:05.035Z,416.00
2019-03-15T10:45:04.983Z,436.00
2019-03-15T10:46:06.257Z,484.00
2019-03-15T10:47:04.945Z,488.00
2019-03-15T10:48:07.947Z,516.00
2019-03-15T10:49:04.920Z,636.00
2019-03-15T10:50:04.907Z,680.00
2019-03-15T10:51:04.950Z,728.00
2019-03-15T10:52:04.888Z,724.00
2019-03-15T10:53:04.879Z,904.00
2019-03-15T10:54:04.867Z,1032.00
2019-03-15T10:55:04.860Z,1064.00
2019-03-15T10:56:04.845Z,956.00
2019-03-15T10:57:04.846Z,1264.00
2019-03-15T10:58:04.851Z,1348.00
2019-03-15T10:59:04.816Z,1384.00
2019-03-15T11:00:04.797Z,1340.00
2019-03-15T11:01:04.797Z,1216.00
2019-03-15T11:02:04.793Z,1348.00
2019-03-15T11:03:04.769Z,1392.00
2019-03-15T11:04:04.790Z,1288.00
2019-03-15T11:05:04.754Z,1036.00
2019-03-15T11:06:04.736Z,876.00
2019-03-15T11:07:04.723Z,736.00
2019-03-15T11:08:04.726Z,648.00
2019-03-15T11:09:04.714Z,884.00
2019-03-15T11:10:04.726Z,944.00
2019-03-15T11:11:04.682Z,812.00
2019-03-15T11:12:04.669Z,608.00
2019-03-15T11:13:04.673Z,704.00
2019-03-15T11:14:04.654Z,780.00
2019-03-15T11:15:04.665Z,492.00
2019-03-15T11:16:04.635Z,612.00
2019-03-15T11:17:04.614Z,592.00
2019-03-15T11:18:04.602Z,784.00
2019-03-15T11:19:04.602Z,752.00
2019-03-15T11:20:04.579Z,552.00
2019-03-15T11:21:04.626Z,792.00
2019-03-15T11:22:04.559Z,680.00
2019-03-15T11:23:04.547Z,672.00
2019-03-15T11:24:04.544Z,644.00
2019-03-15T11:25:04.531Z,600.00
2019-03-15T11:26:13.443Z,624.00
2019-03-15T11:27:05.545Z,640.00
2019-03-15T11:28:04.493Z,816.00
2019-03-15T11:29:04.480Z,1136.00
2019-03-15T11:30:04.470Z,1060.00
2019-03-15T11:31:04.463Z,1140.00
2019-03-15T11:32:04.463Z,1052.00
2019-03-15T11:33:04.490Z,880.00
2019-03-15T11:34:04.427Z,892.00
2019-03-15T11:35:04.418Z,1108.00
2019-03-15T11:36:04.402Z,1196.00
2019-03-15T11:37:04.394Z,1552.00
2019-03-15T11:38:04.385Z,1496.00
2019-03-15T11:39:04.423Z,1672.00
2019-03-15T11:40:04.362Z,1404.00
2019-03-15T11:41:04.349Z,1780.00
2019-03-15T11:42:04.338Z,1272.00
2019-03-15T11:43:04.344Z,1188.00
2019-03-15T11:44:04.332Z,1276.00
2019-03-15T11:45:04.351Z,1900.00
2019-03-15T11:46:04.294Z,1700.00
2019-03-15T11:47:04.294Z,2152.00
2019-03-15T11:48:04.707Z,1360.00
2019-03-15T11:49:04.289Z,1048.00
2019-03-15T11:50:04.258Z,1884.00
2019-03-15T11:51:04.321Z,1848.00
2019-03-15T11:52:04.230Z,1508.00
2019-03-15T11:53:04.219Z,1380.00
2019-03-15T11:54:04.204Z,1220.00
2019-03-15T11:55:04.208Z,1016.00
2019-03-15T11:56:04.183Z,1004.00
2019-03-15T11:57:04.237Z,904.00
2019-03-15T11:58:04.161Z,788.00
2019-03-15T11:59:04.155Z,804.00
2019-03-15T12:00:04.142Z,760.00
2019-03-15T12:01:04.140Z,640.00
2019-03-15T12:02:04.584Z,572.00
2019-03-15T12:03:04.145Z,568.00
2019-03-15T12:04:04.096Z,648.00
2019-03-15T12:05:04.084Z,832.00
2019-03-15T12:06:04.079Z,904.00
2019-03-15T12:07:04.082Z,900.00
2019-03-15T12:08:04.055Z,868.00
2019-03-15T12:09:04.041Z,780.00
2019-03-15T12:10:04.072Z,740.00
2019-03-15T12:11:04.035Z,684.00
2019-03-15T12:12:04.009Z,632.00
2019-03-15T12:13:04.016Z,452.00
2019-03-15T12:14:03.987Z,528.00
2019-03-15T12:15:03.976Z,460.00
2019-03-15T12:16:03.966Z,472.00
2019-03-15T12:17:03.999Z,424.00
2019-03-15T12:18:03.953Z,396.00
2019-03-15T12:19:03.951Z,360.00
2019-03-15T12:20:03.925Z,340.00
2019-03-15T12:21:03.933Z,328.00
2019-03-15T12:22:06.484Z,344.00
2019-03-15T12:23:03.888Z,312.00
2019-03-15T12:24:03.914Z,212.00
2019-03-15T12:25:03.871Z,164.00
2019-03-15T12:26:03.853Z,208.00
2019-03-15T12:27:03.859Z,224.00
2019-03-15T12:28:03.833Z,272.00
2019-03-15T12:29:03.823Z,360.00
2019-03-15T12:30:03.884Z,356.00
2019-03-15T12:31:03.800Z,308.00
2019-03-15T12:32:03.793Z,300.00
2019-03-15T12:33:03.781Z,212.00
2019-03-15T12:34:03.776Z,196.00
2019-03-15T12:35:03.766Z,180.00
2019-03-15T12:36:03.811Z,164.00
2019-03-15T12:37:03.732Z,220.00
2019-03-15T12:38:03.722Z,220.00
2019-03-15T12:39:03.715Z,180.00
2019-03-15T12:40:03.714Z,220.00
2019-03-15T12:41:03.703Z,188.00
2019-03-15T12:42:03.690Z,172.00
2019-03-15T12:43:03.733Z,264.00
2019-03-15T12:44:03.660Z,324.00
2019-03-15T12:45:03.647Z,404.00
2019-03-15T12:46:03.637Z,376.00
2019-03-15T12:47:05.995Z,360.00
2019-03-15T12:48:03.608Z,384.00
2019-03-15T12:49:03.668Z,252.00
2019-03-15T12:50:03.593Z,192.00